createdAt,value
2022-07-27T00:01:08.904Z,17.10
2022-07-27T00:03:37.060Z,18.80
2022-07-27T00:06:04.235Z,17.00
2022-07-27T00:08:31.288Z,16.90
2022-07-27T00:10:58.532Z,17.60
2022-07-27T00:13:26.430Z,18.30
2022-07-27T00:15:53.595Z,16.80
2022-07-27T00:18:20.915Z,16.80
2022-07-27T00:20:47.966Z,16.80
2022-07-27T00:23:15.017Z,16.70
2022-07-27T00:25:42.302Z,17.10
2022-07-27T00:28:09.411Z,16.70
2022-07-27T00:30:36.469Z,16.70
2022-07-27T00:33:05.580Z,16.70
2022-07-27T00:35:32.864Z,16.60
2022-07-27T00:38:01.387Z,16.80
2022-07-27T00:40:28.877Z,17.30
2022-07-27T00:42:55.915Z,16.50
2022-07-27T00:45:23.082Z,16.50
2022-07-27T00:47:54.780Z,16.40
2022-07-27T00:50:22.253Z,16.30
2022-07-27T00:55:17.425Z,16.10
2022-07-27T00:57:59.165Z,16.00
2022-07-27T01:00:29.618Z,15.90
2022-07-27T01:02:57.140Z,15.80
2022-07-27T01:05:26.567Z,15.70
2022-07-27T01:08:06.879Z,15.50
2022-07-27T01:10:34.419Z,15.60
2022-07-27T01:13:04.042Z,15.50
2022-07-27T01:15:35.424Z,15.40
2022-07-27T01:18:10.344Z,15.30
2022-07-27T01:20:37.660Z,15.30
2022-07-27T01:23:04.726Z,15.10
2022-07-27T01:25:31.745Z,15.20
2022-07-27T01:27:58.992Z,15.10
2022-07-27T01:30:30.433Z,15.00
2022-07-27T01:33:05.683Z,15.20
2022-07-27T01:35:33.976Z,14.90
2022-07-27T01:38:01.255Z,14.80
2022-07-27T01:40:28.455Z,14.80
2022-07-27T01:42:55.654Z,14.70
2022-07-27T01:45:23.100Z,14.70
2022-07-27T01:47:50.167Z,14.60
2022-07-27T01:50:17.416Z,14.60
2022-07-27T01:52:44.401Z,14.50
2022-07-27T01:57:39.721Z,14.40
2022-07-27T02:00:11.114Z,14.30
2022-07-27T02:02:41.738Z,14.30
2022-07-27T02:05:12.650Z,14.30
2022-07-27T02:07:42.792Z,13.80
2022-07-27T02:10:10.795Z,15.60
2022-07-27T02:12:38.705Z,14.10
2022-07-27T02:15:07.427Z,14.10
2022-07-27T02:17:35.610Z,14.10
2022-07-27T02:20:04.026Z,14.00
2022-07-27T02:22:31.422Z,14.00
2022-07-27T02:24:58.807Z,13.90
2022-07-27T02:27:25.919Z,13.90
2022-07-27T02:29:53.450Z,13.90
2022-07-27T02:32:21.373Z,13.90
2022-07-27T02:34:48.446Z,13.80
2022-07-27T02:37:15.551Z,13.80
2022-07-27T02:39:43.610Z,13.80
2022-07-27T02:42:10.630Z,13.70
2022-07-27T02:44:37.628Z,13.70
2022-07-27T02:47:05.074Z,14.40
2022-07-27T02:49:32.481Z,14.80
2022-07-27T02:52:00.157Z,13.60
2022-07-27T02:54:27.863Z,13.50
2022-07-27T02:56:56.411Z,13.60
2022-07-27T02:59:23.695Z,13.60
2022-07-27T03:01:51.299Z,13.50
2022-07-27T03:04:19.336Z,13.50
2022-07-27T03:06:46.801Z,13.80
2022-07-27T03:09:14.502Z,13.50
2022-07-27T03:11:41.890Z,13.50
2022-07-27T03:14:08.936Z,13.60
2022-07-27T03:16:36.204Z,13.60
2022-07-27T03:19:03.550Z,13.70
2022-07-27T03:21:30.623Z,13.70
2022-07-27T03:23:57.933Z,13.80
2022-07-27T03:26:24.989Z,13.90
2022-07-27T03:28:52.103Z,14.00
2022-07-27T03:31:19.448Z,14.10
2022-07-27T03:33:46.626Z,14.10
2022-07-27T03:36:13.790Z,14.20
2022-07-27T03:38:41.016Z,14.30
2022-07-27T03:41:08.084Z,14.50
2022-07-27T03:43:35.331Z,14.80
2022-07-27T03:46:02.723Z,15.80
2022-07-27T03:48:29.881Z,17.60
2022-07-27T03:50:57.005Z,19.30
2022-07-27T03:53:24.231Z,20.60
2022-07-27T03:55:51.668Z,21.60
2022-07-27T03:58:18.845Z,22.60
2022-07-27T04:00:46.162Z,23.60
2022-07-27T04:03:13.300Z,23.20
2022-07-27T04:05:40.313Z,23.80
2022-07-27T04:08:07.657Z,25.00
2022-07-27T04:10:34.692Z,26.20
2022-07-27T04:13:01.794Z,27.50
2022-07-27T04:15:30.800Z,28.70
2022-07-27T04:17:58.008Z,30.00
2022-07-27T04:20:25.609Z,30.90
2022-07-27T04:22:53.062Z,31.30
2022-07-27T04:25:20.088Z,32.10
2022-07-27T04:27:47.223Z,32.80
2022-07-27T04:30:14.612Z,33.60
2022-07-27T04:32:41.836Z,34.30
2022-07-27T04:35:09.443Z,35.00
2022-07-27T04:37:36.708Z,35.50
2022-07-27T04:40:04.295Z,36.10
2022-07-27T04:42:31.379Z,36.70
2022-07-27T04:44:59.775Z,37.30
2022-07-27T04:47:26.839Z,37.80
2022-07-27T04:49:53.918Z,38.30
2022-07-27T04:52:26.492Z,38.80
2022-07-27T04:54:56.132Z,39.20
2022-07-27T04:57:23.434Z,39.70
2022-07-27T04:59:50.559Z,40.10
2022-07-27T05:02:17.730Z,40.40
2022-07-27T05:04:44.995Z,40.80
2022-07-27T05:07:12.001Z,41.10
2022-07-27T05:09:39.074Z,41.50
2022-07-27T05:12:06.519Z,41.70
2022-07-27T05:14:33.590Z,41.90
2022-07-27T05:17:00.661Z,42.20
2022-07-27T05:19:40.300Z,42.40
2022-07-27T05:22:08.702Z,42.60
2022-07-27T05:24:36.106Z,43.00
2022-07-27T05:27:03.267Z,43.40
2022-07-27T05:29:30.348Z,43.80
2022-07-27T05:31:57.684Z,44.10
2022-07-27T05:34:24.815Z,44.40
2022-07-27T05:36:51.955Z,44.80
2022-07-27T05:39:20.684Z,44.90
2022-07-27T05:41:48.954Z,45.10
2022-07-27T05:44:16.871Z,45.30
2022-07-27T05:46:44.588Z,45.50
2022-07-27T05:49:13.149Z,45.70
2022-07-27T05:51:40.567Z,45.50
2022-07-27T05:54:08.139Z,45.70
2022-07-27T05:56:35.641Z,45.90
2022-07-27T05:59:07.086Z,45.80
2022-07-27T06:01:34.915Z,46.00
2022-07-27T06:04:02.182Z,46.10
2022-07-27T06:06:47.914Z,46.10
2022-07-27T06:09:15.651Z,46.10
2022-07-27T06:11:43.073Z,46.20
2022-07-27T06:14:10.089Z,46.30
2022-07-27T06:16:37.484Z,46.30
2022-07-27T06:19:06.076Z,46.30
2022-07-27T06:21:33.094Z,46.50
2022-07-27T06:24:00.374Z,46.60
2022-07-27T06:26:27.518Z,46.50
2022-07-27T06:28:58.833Z,46.30
2022-07-27T06:31:27.409Z,46.50
2022-07-27T06:33:57.707Z,46.60
2022-07-27T06:36:29.531Z,46.60
2022-07-27T06:38:56.545Z,46.10
2022-07-27T06:41:26.588Z,46.00
2022-07-27T06:43:53.883Z,46.10
2022-07-27T06:46:20.912Z,46.20
2022-07-27T06:48:48.006Z,46.30
2022-07-27T06:51:15.364Z,44.00
2022-07-27T06:53:42.469Z,46.40
2022-07-27T06:56:09.579Z,46.80
2022-07-27T06:58:40.500Z,47.00
2022-07-27T07:01:07.648Z,46.50
2022-07-27T07:03:34.772Z,45.00
2022-07-27T07:06:02.419Z,42.80
2022-07-27T07:08:29.505Z,40.80
2022-07-27T07:10:56.751Z,38.90
2022-07-27T07:13:25.156Z,37.40
2022-07-27T07:15:52.254Z,35.90
2022-07-27T07:18:19.397Z,34.60
2022-07-27T07:20:46.682Z,33.80
2022-07-27T07:23:13.815Z,33.10
2022-07-27T07:25:41.849Z,32.70
2022-07-27T07:28:09.200Z,32.60
2022-07-27T07:30:36.627Z,32.60
2022-07-27T07:33:04.307Z,32.60
2022-07-27T07:35:32.023Z,32.80
2022-07-27T07:37:59.175Z,32.80
2022-07-27T07:40:43.257Z,32.60
2022-07-27T07:43:13.043Z,32.10
2022-07-27T07:45:50.268Z,29.40
2022-07-27T07:48:19.945Z,31.20
2022-07-27T07:50:51.860Z,30.90
2022-07-27T07:53:21.248Z,30.70
2022-07-27T07:55:48.570Z,30.30
2022-07-27T07:58:15.624Z,30.00
2022-07-27T08:00:44.084Z,29.70
2022-07-27T08:03:11.344Z,29.80
2022-07-27T08:05:38.553Z,29.70
2022-07-27T08:08:05.911Z,29.60
2022-07-27T08:10:33.340Z,29.50
2022-07-27T08:13:00.528Z,29.30
2022-07-27T08:15:35.682Z,29.30
2022-07-27T08:18:06.482Z,29.30
2022-07-27T08:20:34.904Z,29.30
2022-07-27T08:23:02.160Z,29.60
2022-07-27T08:25:29.880Z,30.10
2022-07-27T08:27:58.198Z,30.20
2022-07-27T08:30:25.694Z,30.50
2022-07-27T08:32:58.315Z,30.60
2022-07-27T08:35:26.459Z,30.50
2022-07-27T08:37:53.942Z,30.30
2022-07-27T08:40:39.829Z,30.00
2022-07-27T08:43:08.880Z,29.70
2022-07-27T08:45:37.379Z,29.40
2022-07-27T08:48:05.259Z,29.30
2022-07-27T08:50:34.841Z,29.30
2022-07-27T08:53:07.038Z,29.40
2022-07-27T08:55:38.010Z,29.60
2022-07-27T08:58:06.742Z,29.30
2022-07-27T09:00:35.962Z,29.00
2022-07-27T09:03:04.702Z,28.90
2022-07-27T09:05:37.313Z,28.70
2022-07-27T09:08:16.896Z,28.70
2022-07-27T09:10:44.727Z,28.50
2022-07-27T09:13:26.765Z,28.50
2022-07-27T09:18:47.699Z,28.70
2022-07-27T09:21:24.439Z,28.60
2022-07-27T09:24:13.455Z,28.50
2022-07-27T09:27:02.729Z,28.40
2022-07-27T09:29:35.382Z,28.40
2022-07-27T09:32:17.014Z,28.10
2022-07-27T09:34:44.977Z,27.60
2022-07-27T09:37:17.719Z,27.20
2022-07-27T09:39:46.539Z,26.80
2022-07-27T09:42:59.284Z,28.10
2022-07-27T09:45:33.831Z,27.10
2022-07-27T09:48:16.664Z,27.30
2022-07-27T09:51:02.708Z,27.30
2022-07-27T09:53:43.860Z,27.40
2022-07-27T09:56:13.527Z,27.30
2022-07-27T09:58:46.744Z,27.00
2022-07-27T10:01:23.043Z,26.80
2022-07-27T10:03:53.119Z,26.60
2022-07-27T10:06:20.198Z,26.70
2022-07-27T10:08:49.049Z,27.00
2022-07-27T10:11:17.701Z,26.90
2022-07-27T10:13:44.742Z,27.00
2022-07-27T10:16:16.068Z,27.20
2022-07-27T10:19:03.305Z,27.20
2022-07-27T10:21:38.437Z,27.20
2022-07-27T10:24:12.689Z,27.00
2022-07-27T10:26:41.896Z,26.80
2022-07-27T10:29:19.313Z,26.60
2022-07-27T10:31:52.515Z,26.70
2022-07-27T10:34:40.212Z,26.80
2022-07-27T10:37:28.227Z,26.80
2022-07-27T10:40:17.274Z,26.70
2022-07-27T10:42:51.892Z,26.50
2022-07-27T10:45:22.191Z,26.40
2022-07-27T10:47:52.270Z,26.30
2022-07-27T10:50:24.102Z,26.20
2022-07-27T10:52:56.128Z,26.00
2022-07-27T10:55:36.465Z,26.00
2022-07-27T10:58:09.497Z,26.10
2022-07-27T11:00:54.676Z,26.10
2022-07-27T11:03:25.250Z,26.20
2022-07-27T11:06:21.778Z,26.30
2022-07-27T11:09:21.388Z,26.60
2022-07-27T11:11:41.648Z,26.60
2022-07-27T11:14:11.472Z,26.70
2022-07-27T11:16:54.505Z,27.00
2022-07-27T11:19:24.978Z,27.30
2022-07-27T11:21:55.146Z,27.50
2022-07-27T11:24:23.604Z,27.70
2022-07-27T11:26:52.337Z,27.70
2022-07-27T11:29:24.291Z,27.70
2022-07-27T11:31:58.733Z,27.60
2022-07-27T11:34:33.752Z,27.50
2022-07-27T11:37:03.038Z,27.40
2022-07-27T11:42:21.851Z,27.40
2022-07-27T11:44:52.827Z,27.40
2022-07-27T11:47:24.249Z,27.40
2022-07-27T11:49:52.178Z,27.30
2022-07-27T11:52:19.427Z,27.30
2022-07-27T11:54:52.219Z,27.50
2022-07-27T11:57:20.753Z,27.60
2022-07-27T11:59:48.633Z,27.70
2022-07-27T12:02:18.349Z,27.90
2022-07-27T12:04:47.826Z,27.70
2022-07-27T12:07:27.818Z,27.90
2022-07-27T12:09:58.099Z,27.90
2022-07-27T12:12:27.429Z,28.00
2022-07-27T12:15:11.817Z,27.90
2022-07-27T12:17:57.382Z,27.70
2022-07-27T12:20:33.104Z,27.90
2022-07-27T12:23:06.547Z,27.70
2022-07-27T12:25:35.314Z,27.60
2022-07-27T12:28:07.384Z,27.60
2022-07-27T12:30:37.257Z,25.30
2022-07-27T12:33:08.240Z,27.30
2022-07-27T12:35:47.011Z,27.10
2022-07-27T12:38:14.457Z,26.90
2022-07-27T12:40:48.358Z,26.50
2022-07-27T12:43:18.215Z,26.30
2022-07-27T12:45:46.452Z,26.10
2022-07-27T12:48:17.456Z,26.00
2022-07-27T12:50:48.180Z,25.90
2022-07-27T12:53:16.932Z,25.80
2022-07-27T12:55:47.182Z,25.90
2022-07-27T12:58:14.999Z,25.80
2022-07-27T13:00:42.259Z,25.80
2022-07-27T13:03:09.892Z,26.00
2022-07-27T13:05:37.218Z,26.10
2022-07-27T13:08:05.238Z,25.90
2022-07-27T13:10:32.558Z,25.80
2022-07-27T13:13:00.188Z,26.00
2022-07-27T13:15:27.429Z,26.10
2022-07-27T13:17:54.540Z,26.20
2022-07-27T13:20:21.933Z,26.20
2022-07-27T13:22:49.473Z,26.10
2022-07-27T13:25:17.700Z,26.20
2022-07-27T13:27:46.435Z,26.20
2022-07-27T13:30:15.029Z,26.20
2022-07-27T13:32:42.945Z,26.10
2022-07-27T13:35:14.169Z,26.00
2022-07-27T13:37:41.678Z,26.10
2022-07-27T13:40:09.976Z,26.10
2022-07-27T13:42:37.727Z,26.10
2022-07-27T13:45:10.298Z,26.00
2022-07-27T13:47:40.053Z,25.60
2022-07-27T13:50:16.725Z,25.40
2022-07-27T13:52:46.783Z,25.10
2022-07-27T13:55:18.136Z,24.90
2022-07-27T13:57:46.592Z,24.70
2022-07-27T14:00:15.210Z,24.80
2022-07-27T14:02:43.338Z,24.80
2022-07-27T14:05:14.125Z,25.30
2022-07-27T14:07:43.287Z,24.80
2022-07-27T14:10:30.518Z,24.80
2022-07-27T14:13:07.807Z,24.80
2022-07-27T14:15:54.297Z,24.80
2022-07-27T14:18:26.101Z,24.60
2022-07-27T14:20:54.220Z,24.50
2022-07-27T14:23:21.478Z,24.40
2022-07-27T14:25:48.815Z,24.30
2022-07-27T14:28:16.280Z,24.30
2022-07-27T14:30:43.578Z,24.30
2022-07-27T14:33:10.800Z,24.80
2022-07-27T14:35:40.706Z,24.20
2022-07-27T14:38:09.603Z,24.20
2022-07-27T14:40:37.903Z,24.10
2022-07-27T14:43:06.334Z,24.20
2022-07-27T14:45:44.542Z,24.10
2022-07-27T14:48:25.351Z,24.10
2022-07-27T14:51:00.300Z,24.50
2022-07-27T14:53:27.712Z,24.00
2022-07-27T14:55:54.754Z,24.00
2022-07-27T14:58:21.995Z,24.00
2022-07-27T15:00:49.456Z,23.90
2022-07-27T15:03:16.579Z,24.00
2022-07-27T15:05:50.492Z,23.90
2022-07-27T15:08:19.453Z,23.80
2022-07-27T15:10:47.232Z,23.80
2022-07-27T15:13:14.918Z,23.80
2022-07-27T15:15:42.450Z,24.70
2022-07-27T15:18:09.722Z,23.90
2022-07-27T15:20:36.770Z,24.10
2022-07-27T15:23:04.379Z,24.30
2022-07-27T15:25:31.476Z,24.30
2022-07-27T15:27:58.733Z,24.30
2022-07-27T15:30:25.998Z,24.30
2022-07-27T15:32:53.225Z,24.30
2022-07-27T15:35:20.331Z,24.30
2022-07-27T15:37:53.958Z,24.20
2022-07-27T15:40:37.460Z,24.10
2022-07-27T15:43:10.909Z,23.90
2022-07-27T15:45:40.317Z,23.80
2022-07-27T15:48:09.752Z,23.70
2022-07-27T15:50:39.099Z,24.30
2022-07-27T15:53:06.735Z,23.40
2022-07-27T15:55:35.376Z,23.20
2022-07-27T15:58:03.625Z,23.20
2022-07-27T16:00:34.184Z,23.00
2022-07-27T16:03:05.749Z,23.20
2022-07-27T16:05:33.309Z,22.80
2022-07-27T16:08:00.393Z,23.40
2022-07-27T16:10:29.885Z,22.60
2022-07-27T16:12:57.421Z,23.00
2022-07-27T16:15:44.559Z,22.60
2022-07-27T16:18:12.115Z,22.70
2022-07-27T16:20:39.427Z,22.90
2022-07-27T16:23:17.610Z,23.00
2022-07-27T16:26:03.313Z,23.10
2022-07-27T16:28:33.516Z,23.20
2022-07-27T16:31:00.956Z,23.90
2022-07-27T16:33:28.091Z,23.10
2022-07-27T16:35:55.123Z,23.10
2022-07-27T16:38:22.533Z,22.70
2022-07-27T16:40:49.618Z,23.20
2022-07-27T16:43:16.904Z,22.50
2022-07-27T16:45:44.132Z,22.20
2022-07-27T16:48:12.502Z,22.00
2022-07-27T16:50:39.531Z,21.80
2022-07-27T16:53:07.259Z,21.70
2022-07-27T16:55:34.309Z,21.70
2022-07-27T16:58:01.385Z,21.60
2022-07-27T17:00:28.704Z,21.60
2022-07-27T17:02:55.794Z,21.50
2022-07-27T17:05:23.343Z,21.40
2022-07-27T17:07:52.410Z,21.40
2022-07-27T17:10:26.897Z,21.20
2022-07-27T17:12:55.752Z,21.20
2022-07-27T17:15:25.249Z,21.30
2022-07-27T17:17:53.900Z,21.20
2022-07-27T17:20:32.901Z,21.20
2022-07-27T17:23:03.926Z,21.10
2022-07-27T17:25:31.195Z,20.90
2022-07-27T17:27:58.479Z,20.80
2022-07-27T17:30:25.563Z,20.70
2022-07-27T17:32:53.491Z,20.70
2022-07-27T17:35:20.629Z,20.60
2022-07-27T17:38:05.661Z,21.40
2022-07-27T17:40:34.192Z,20.40
2022-07-27T17:43:01.528Z,20.30
2022-07-27T17:45:28.633Z,20.20
2022-07-27T17:47:55.966Z,20.20
2022-07-27T17:50:23.146Z,20.00
2022-07-27T17:52:50.347Z,20.30
2022-07-27T17:55:17.638Z,19.90
2022-07-27T17:57:45.381Z,20.10
2022-07-27T18:00:13.175Z,19.80
2022-07-27T18:02:41.933Z,19.70
2022-07-27T18:05:09.113Z,19.60
2022-07-27T18:07:37.839Z,19.50
2022-07-27T18:10:08.415Z,20.60
2022-07-27T18:12:35.853Z,19.30
2022-07-27T18:15:22.191Z,19.20
2022-07-27T18:17:49.859Z,19.20
2022-07-27T18:20:16.876Z,19.50
2022-07-27T18:22:44.180Z,19.10
2022-07-27T18:25:13.088Z,19.00
2022-07-27T18:27:40.927Z,19.00
2022-07-27T18:30:08.541Z,18.90
2022-07-27T18:32:36.051Z,18.80
2022-07-27T18:35:05.346Z,18.60
2022-07-27T18:37:32.501Z,18.60
2022-07-27T18:39:59.823Z,18.40
2022-07-27T18:42:26.976Z,18.40
2022-07-27T18:44:54.418Z,18.30
2022-07-27T18:47:21.888Z,18.20
2022-07-27T18:49:49.026Z,18.10
2022-07-27T18:52:16.519Z,18.00
2022-07-27T18:54:43.936Z,17.80
2022-07-27T18:57:11.021Z,17.80
2022-07-27T18:59:41.045Z,18.40
2022-07-27T19:02:09.312Z,17.60
2022-07-27T19:04:36.706Z,17.40
2022-07-27T19:07:06.394Z,17.40
2022-07-27T19:09:34.984Z,17.30
2022-07-27T19:12:05.965Z,17.20
2022-07-27T19:14:37.005Z,18.30
2022-07-27T19:17:05.138Z,17.20
2022-07-27T19:19:32.480Z,17.20
2022-07-27T19:22:00.239Z,17.10
2022-07-27T19:24:27.249Z,17.10
2022-07-27T19:26:54.280Z,17.00
2022-07-27T19:29:22.771Z,16.90
2022-07-27T19:31:50.799Z,16.90
2022-07-27T19:34:19.200Z,16.80
2022-07-27T19:36:46.504Z,16.70
2022-07-27T19:39:13.738Z,16.70
2022-07-27T19:41:41.317Z,16.70
2022-07-27T19:44:08.650Z,16.70
2022-07-27T19:46:36.157Z,17.60
2022-07-27T19:49:03.395Z,18.10
2022-07-27T19:51:30.727Z,16.70
2022-07-27T19:53:57.877Z,16.90
2022-07-27T19:56:24.950Z,16.70
2022-07-27T19:58:52.307Z,16.70
2022-07-27T20:01:19.541Z,16.70
2022-07-27T20:03:53.284Z,16.70
2022-07-27T20:06:26.101Z,16.60
2022-07-27T20:08:59.654Z,16.50
2022-07-27T20:11:29.989Z,16.40
2022-07-27T20:14:02.620Z,16.30
2022-07-27T20:16:32.215Z,16.20
2022-07-27T20:19:00.202Z,16.50
2022-07-27T20:21:27.240Z,16.10
2022-07-27T20:23:54.791Z,16.00
2022-07-27T20:26:21.985Z,15.90
2022-07-27T20:28:50.161Z,15.90
2022-07-27T20:31:18.471Z,15.80
2022-07-27T20:33:45.996Z,15.70
2022-07-27T20:36:13.309Z,15.70
2022-07-27T20:38:41.713Z,15.60
2022-07-27T20:41:08.719Z,15.50
2022-07-27T20:43:35.889Z,15.50
2022-07-27T20:46:03.932Z,15.40
2022-07-27T20:48:31.154Z,15.70
2022-07-27T20:50:59.554Z,15.30
2022-07-27T20:53:27.032Z,15.30
2022-07-27T20:55:54.104Z,15.20
2022-07-27T20:58:21.301Z,15.20
2022-07-27T21:00:48.626Z,15.10
2022-07-27T21:03:15.697Z,15.10
2022-07-27T21:05:43.030Z,15.10
2022-07-27T21:08:10.431Z,15.00
2022-07-27T21:10:37.491Z,15.10
2022-07-27T21:13:04.955Z,15.00
2022-07-27T21:15:33.759Z,15.00
2022-07-27T21:18:02.252Z,15.10
2022-07-27T21:20:29.635Z,15.00
2022-07-27T21:23:15.727Z,15.00
2022-07-27T21:25:44.133Z,15.00
2022-07-27T21:28:16.479Z,14.90
2022-07-27T21:30:46.234Z,14.90
2022-07-27T21:33:13.719Z,14.90
2022-07-27T21:35:40.744Z,14.80
2022-07-27T21:38:07.903Z,14.80
2022-07-27T21:40:35.206Z,14.70
2022-07-27T21:43:02.231Z,14.70
2022-07-27T21:45:29.285Z,14.60
2022-07-27T21:47:58.143Z,14.60
2022-07-27T21:50:25.433Z,14.50
2022-07-27T21:52:53.113Z,14.50
2022-07-27T21:55:23.268Z,14.50
2022-07-27T21:57:51.469Z,14.40
2022-07-27T22:00:29.479Z,14.40
2022-07-27T22:02:57.208Z,14.30
2022-07-27T22:05:24.532Z,14.30
2022-07-27T22:07:53.057Z,14.20
2022-07-27T22:10:20.589Z,14.10
2022-07-27T22:12:47.670Z,14.10
2022-07-27T22:15:14.732Z,14.00
2022-07-27T22:17:46.214Z,14.00
2022-07-27T22:20:18.305Z,14.20
2022-07-27T22:22:45.722Z,13.80
2022-07-27T22:25:12.889Z,13.80
2022-07-27T22:27:40.051Z,13.80
2022-07-27T22:30:08.338Z,13.90
2022-07-27T22:32:35.754Z,13.90
2022-07-27T22:35:03.544Z,14.00
2022-07-27T22:37:30.820Z,14.00
2022-07-27T22:39:57.842Z,14.00
2022-07-27T22:42:24.976Z,14.10
2022-07-27T22:44:52.217Z,14.10
2022-07-27T22:47:19.306Z,14.10
2022-07-27T22:49:46.291Z,14.10
2022-07-27T22:52:13.586Z,14.10
2022-07-27T22:54:41.978Z,14.20
2022-07-27T22:57:09.158Z,15.40
2022-07-27T22:59:37.535Z,14.20
2022-07-27T23:02:05.386Z,14.30
2022-07-27T23:04:32.687Z,14.30
2022-07-27T23:07:00.520Z,14.40
2022-07-27T23:09:27.539Z,14.40
2022-07-27T23:11:54.690Z,14.50
2022-07-27T23:14:25.742Z,14.50
2022-07-27T23:16:53.128Z,14.50
2022-07-27T23:19:20.228Z,14.50
2022-07-27T23:21:47.507Z,14.40
2022-07-27T23:24:15.380Z,14.40
2022-07-27T23:26:43.180Z,14.30
2022-07-27T23:29:10.660Z,14.20
2022-07-27T23:31:38.014Z,14.10
2022-07-27T23:34:05.357Z,14.10
2022-07-27T23:36:32.735Z,14.00
2022-07-27T23:38:59.750Z,13.90
2022-07-27T23:41:27.020Z,13.80
2022-07-27T23:43:54.237Z,13.80
2022-07-27T23:46:21.244Z,13.70
2022-07-27T23:48:48.390Z,13.60
2022-07-27T23:51:20.224Z,13.70
2022-07-27T23:53:48.118Z,13.50
2022-07-27T23:56:15.338Z,13.50
2022-07-27T23:58:43.468Z,13.40
